createdAt,value
2023-04-10T00:01:01.840Z,11.53
2023-04-10T00:06:05.001Z,11.08
2023-04-10T00:11:07.859Z,10.71
2023-04-10T00:16:11.716Z,11.43
2023-04-10T00:21:14.609Z,14.21
2023-04-10T00:26:18.000Z,15.60
2023-04-10T00:31:20.887Z,14.46
2023-04-10T00:36:24.024Z,12.97
2023-04-10T00:41:27.442Z,12.09
2023-04-10T00:46:31.807Z,11.44
2023-04-10T00:51:34.710Z,10.91
2023-04-10T00:56:38.018Z,10.50
2023-04-10T01:01:40.929Z,11.14
2023-04-10T01:07:04.728Z,13.89
2023-04-10T01:12:47.564Z,15.48
2023-04-10T01:18:04.346Z,15.21
2023-04-10T01:23:56.991Z,13.39
2023-04-10T01:29:01.339Z,12.24
2023-04-10T01:34:11.836Z,11.53
2023-04-10T01:39:19.264Z,10.96
2023-04-10T01:44:27.132Z,10.49
2023-04-10T01:49:31.628Z,10.10
2023-04-10T01:54:35.767Z,10.83
2023-04-10T01:59:40.133Z,13.65
2023-04-10T02:04:42.984Z,15.20
2023-04-10T02:10:02.954Z,14.42
2023-04-10T02:15:08.602Z,12.70
2023-04-10T02:20:12.793Z,11.74
2023-04-10T02:25:16.747Z,11.06
2023-04-10T02:30:19.734Z,10.47
2023-04-10T02:35:22.864Z,10.03
2023-04-10T02:40:25.822Z,10.72
2023-04-10T02:45:28.625Z,13.49
2023-04-10T02:50:32.440Z,14.87
2023-04-10T02:55:35.142Z,13.63
2023-04-10T03:00:38.454Z,12.20
2023-04-10T03:05:41.275Z,11.31
2023-04-10T03:10:45.708Z,10.64
2023-04-10T03:15:48.580Z,10.11
2023-04-10T03:20:51.432Z,9.80
2023-04-10T03:25:55.026Z,12.00
2023-04-10T03:30:57.901Z,14.21
2023-04-10T03:36:00.780Z,14.43
2023-04-10T03:41:03.719Z,12.64
2023-04-10T03:46:06.770Z,11.50
2023-04-10T03:51:09.689Z,10.69
2023-04-10T03:56:12.555Z,10.14
2023-04-10T04:01:15.473Z,10.82
2023-04-10T04:06:18.521Z,13.53
2023-04-10T04:11:21.342Z,14.88
2023-04-10T04:16:24.258Z,13.77
2023-04-10T04:21:27.698Z,12.10
2023-04-10T04:26:30.753Z,11.14
2023-04-10T04:31:33.714Z,10.44
2023-04-10T04:36:36.627Z,9.91
2023-04-10T04:41:39.414Z,9.48
2023-04-10T04:46:44.493Z,10.22
2023-04-10T04:51:47.594Z,13.08
2023-04-10T04:56:50.430Z,14.61
2023-04-10T05:01:53.331Z,13.56
2023-04-10T05:06:56.257Z,11.99
2023-04-10T05:11:59.116Z,10.99
2023-04-10T05:17:03.515Z,10.28
2023-04-10T05:22:06.731Z,10.78
2023-04-10T05:27:09.619Z,13.51
2023-04-10T05:32:12.541Z,14.99
2023-04-10T05:37:15.427Z,14.66
2023-04-10T05:42:18.278Z,12.88
2023-04-10T05:47:21.107Z,11.82
2023-04-10T05:52:23.924Z,11.21
2023-04-10T05:57:26.757Z,10.83
2023-04-10T06:02:29.796Z,11.64
2023-04-10T06:07:33.373Z,14.50
2023-04-10T06:12:36.281Z,16.03
2023-04-10T06:17:45.955Z,16.07
2023-04-10T06:22:48.814Z,14.39
2023-04-10T06:27:51.694Z,13.40
2023-04-10T06:32:54.610Z,12.72
2023-04-10T06:37:57.502Z,12.24
2023-04-10T06:43:01.427Z,12.79
2023-04-10T06:48:05.144Z,15.30
2023-04-10T06:53:08.076Z,16.45
2023-04-10T06:58:10.955Z,15.09
2023-04-10T07:03:13.899Z,13.76
2023-04-10T07:08:16.821Z,12.97
2023-04-10T07:13:19.669Z,12.45
2023-04-10T07:18:22.479Z,13.23
2023-04-10T07:23:25.552Z,15.86
2023-04-10T07:28:28.367Z,16.69
2023-04-10T07:33:31.493Z,15.15
2023-04-10T07:38:34.345Z,14.13
2023-04-10T07:43:37.274Z,13.57
2023-04-10T07:48:40.072Z,13.22
2023-04-10T07:53:43.484Z,14.47
2023-04-10T07:58:46.749Z,16.94
2023-04-10T08:03:49.788Z,17.44
2023-04-10T08:08:52.971Z,15.91
2023-04-10T08:14:02.432Z,14.97
2023-04-10T08:19:05.321Z,14.86
2023-04-10T08:24:08.148Z,17.16
2023-04-10T08:29:10.958Z,17.25
2023-04-10T08:34:13.831Z,15.91
2023-04-10T08:39:16.656Z,15.17
2023-04-10T08:44:19.482Z,14.71
2023-04-10T08:49:47.742Z,14.98
2023-04-10T08:54:56.251Z,17.54
2023-04-10T08:59:59.531Z,16.99
2023-04-10T09:05:05.895Z,15.88
2023-04-10T09:10:09.564Z,15.29
2023-04-10T09:15:12.671Z,14.94
2023-04-10T09:20:23.884Z,14.68
2023-04-10T09:25:36.533Z,14.48
2023-04-10T09:30:42.491Z,14.35
2023-04-10T09:35:45.370Z,14.31
2023-04-10T09:40:49.100Z,14.31
2023-04-10T09:45:57.526Z,14.33
2023-04-10T09:51:00.922Z,14.37
2023-04-10T09:56:05.320Z,14.49
2023-04-10T10:01:08.557Z,14.60
2023-04-10T10:06:11.815Z,14.64
2023-04-10T10:11:19.352Z,14.67
2023-04-10T10:16:34.707Z,14.79
2023-04-10T10:21:39.015Z,14.94
2023-04-10T10:26:46.105Z,15.05
2023-04-10T10:31:49.497Z,15.16
2023-04-10T10:36:52.283Z,15.28
2023-04-10T10:42:09.620Z,15.40
2023-04-10T10:47:27.650Z,15.44
2023-04-10T10:52:52.928Z,15.52
2023-04-10T10:57:59.151Z,15.61
2023-04-10T11:03:07.871Z,15.58
2023-04-10T11:08:10.902Z,15.60
2023-04-10T11:13:18.540Z,15.66
2023-04-10T11:18:56.045Z,15.73
2023-04-10T11:24:05.945Z,15.62
2023-04-10T11:29:28.859Z,15.47
2023-04-10T11:34:33.225Z,15.35
2023-04-10T11:39:36.078Z,15.36
2023-04-10T11:44:39.729Z,15.52
2023-04-10T11:49:42.598Z,15.66
2023-04-10T11:54:49.170Z,15.69
2023-04-10T11:59:52.088Z,15.58
2023-04-10T12:04:59.014Z,15.42
2023-04-10T12:10:02.140Z,15.30
2023-04-10T12:15:29.154Z,15.33
2023-04-10T12:20:32.230Z,15.50
2023-04-10T12:25:35.502Z,15.50
2023-04-10T12:30:38.310Z,15.30
2023-04-10T12:35:44.421Z,15.10
2023-04-10T12:41:02.981Z,14.97
2023-04-10T12:46:07.778Z,14.97
2023-04-10T12:51:10.655Z,15.05
2023-04-10T12:56:14.786Z,15.21
2023-04-10T13:01:17.664Z,15.34
2023-04-10T13:06:20.645Z,15.47
2023-04-10T13:11:23.550Z,15.65
2023-04-10T13:16:26.379Z,15.78
2023-04-10T13:21:29.931Z,15.79
2023-04-10T13:26:32.790Z,15.61
2023-04-10T13:31:35.848Z,15.40
2023-04-10T13:36:38.864Z,15.27
2023-04-10T13:41:41.796Z,15.22
2023-04-10T13:46:44.704Z,15.27
2023-04-10T13:51:47.924Z,15.35
2023-04-10T13:56:50.774Z,15.43
2023-04-10T14:01:53.697Z,15.47
2023-04-10T14:07:00.028Z,15.36
2023-04-10T14:12:03.276Z,15.05
2023-04-10T14:17:06.137Z,14.79
2023-04-10T14:22:09.035Z,14.61
2023-04-10T14:27:13.293Z,14.43
2023-04-10T14:32:16.374Z,14.30
2023-04-10T14:37:19.270Z,14.21
2023-04-10T14:42:23.713Z,14.18
2023-04-10T14:47:26.635Z,14.15
2023-04-10T14:52:29.488Z,14.10
2023-04-10T14:57:32.385Z,14.13
2023-04-10T15:02:35.469Z,16.33
2023-04-10T15:07:38.498Z,17.08
2023-04-10T15:12:42.497Z,15.49
2023-04-10T15:17:45.346Z,14.54
2023-04-10T15:22:48.290Z,14.05
2023-04-10T15:27:51.186Z,14.80
2023-04-10T15:32:54.067Z,17.37
2023-04-10T15:37:57.298Z,18.73
2023-04-10T15:43:02.960Z,17.77
2023-04-10T15:48:06.084Z,16.30
2023-04-10T15:53:09.511Z,15.50
2023-04-10T15:58:12.351Z,14.88
2023-04-10T16:03:21.332Z,15.37
2023-04-10T16:08:26.245Z,17.77
2023-04-10T16:13:29.179Z,18.67
2023-04-10T16:18:31.972Z,17.07
2023-04-10T16:23:34.772Z,15.76
2023-04-10T16:28:37.568Z,14.91
2023-04-10T16:33:41.694Z,14.31
2023-04-10T16:38:45.269Z,14.92
2023-04-10T16:43:48.243Z,17.28
2023-04-10T16:48:52.077Z,18.38
2023-04-10T16:53:54.832Z,17.24
2023-04-10T16:58:57.886Z,15.91
2023-04-10T17:04:00.907Z,15.09
2023-04-10T17:09:03.933Z,14.49
2023-04-10T17:14:07.520Z,14.93
2023-04-10T17:19:10.354Z,17.31
2023-04-10T17:24:13.827Z,18.19
2023-04-10T17:29:16.593Z,16.69
2023-04-10T17:34:19.374Z,15.57
2023-04-10T17:39:23.919Z,14.86
2023-04-10T17:44:26.706Z,14.26
2023-04-10T17:49:30.520Z,14.77
2023-04-10T17:54:34.157Z,17.24
2023-04-10T17:59:36.996Z,18.26
2023-04-10T18:04:39.799Z,16.78
2023-04-10T18:09:42.650Z,15.50
2023-04-10T18:14:45.632Z,14.69
2023-04-10T18:19:53.232Z,14.05
2023-04-10T18:24:56.097Z,14.48
2023-04-10T18:29:58.931Z,16.76
2023-04-10T18:35:03.655Z,17.16
2023-04-10T18:40:16.319Z,15.49
2023-04-10T18:45:20.552Z,14.40
2023-04-10T18:50:23.451Z,13.70
2023-04-10T18:55:26.248Z,13.21
2023-04-10T19:00:29.135Z,12.83
2023-04-10T19:05:32.687Z,12.52
2023-04-10T19:10:37.349Z,13.31
2023-04-10T19:15:46.273Z,15.93
2023-04-10T19:20:53.015Z,16.99
2023-04-10T19:25:58.598Z,15.53
2023-04-10T19:31:01.885Z,14.35
2023-04-10T19:36:08.042Z,13.59
2023-04-10T19:41:15.756Z,13.02
2023-04-10T19:46:21.957Z,12.54
2023-04-10T19:51:24.948Z,13.12
2023-04-10T19:56:30.630Z,15.72
2023-04-10T20:01:34.234Z,16.24
2023-04-10T20:06:37.059Z,14.60
2023-04-10T20:11:39.922Z,13.56
2023-04-10T20:16:42.785Z,12.89
2023-04-10T20:21:45.723Z,12.30
2023-04-10T20:26:48.716Z,11.86
2023-04-10T20:31:51.559Z,12.45
2023-04-10T20:36:54.591Z,14.90
2023-04-10T20:41:57.449Z,16.16
2023-04-10T20:47:02.891Z,15.19
2023-04-10T20:52:06.861Z,13.71
2023-04-10T20:57:09.801Z,12.82
2023-04-10T21:02:13.310Z,12.20
2023-04-10T21:07:16.074Z,11.70
2023-04-10T21:12:18.875Z,11.26
2023-04-10T21:17:22.265Z,10.91
2023-04-10T21:22:27.003Z,11.66
2023-04-10T21:27:30.952Z,14.32
2023-04-10T21:32:33.825Z,15.43
2023-04-10T21:37:37.166Z,14.07
2023-04-10T21:42:39.999Z,12.90
2023-04-10T21:47:42.894Z,12.19
2023-04-10T21:52:45.824Z,11.64
2023-04-10T21:57:48.661Z,11.18
2023-04-10T22:02:52.029Z,10.80
2023-04-10T22:07:55.251Z,11.36
2023-04-10T22:12:58.071Z,13.96
2023-04-10T22:18:00.985Z,15.20
2023-04-10T22:23:06.867Z,13.81
2023-04-10T22:28:09.683Z,12.56
2023-04-10T22:33:12.513Z,11.80
2023-04-10T22:38:15.596Z,11.22
2023-04-10T22:43:18.407Z,10.76
2023-04-10T22:48:21.414Z,10.37
2023-04-10T22:53:24.262Z,10.02
2023-04-10T22:58:27.124Z,10.79
2023-04-10T23:03:29.957Z,13.52
2023-04-10T23:08:32.826Z,14.13
2023-04-10T23:13:36.070Z,12.54
2023-04-10T23:18:39.248Z,11.61
2023-04-10T23:23:42.137Z,11.04
2023-04-10T23:28:44.973Z,10.58
2023-04-10T23:33:47.801Z,10.13
2023-04-10T23:38:50.733Z,9.78
2023-04-10T23:43:54.020Z,10.47
2023-04-10T23:48:56.868Z,13.25
2023-04-10T23:53:59.698Z,14.46
2023-04-10T23:59:02.527Z,13.05
